sensor_id;sensor_type;location;lat;lon;timestamp;pressure;altitude;pressure_sealevel;temperature;humidity
77723;BME280;66890;42.656;23.394;2023-01-15T00:00:54;95490.97;;;3.77;69.62
77723;BME280;66890;42.656;23.394;2023-01-15T00:02:55;95491.25;;;3.74;69.50
77723;BME280;66890;42.656;23.394;2023-01-15T00:04:55;95483.78;;;3.79;69.48
77723;BME280;66890;42.656;23.394;2023-01-15T00:06:56;95488.19;;;3.78;69.59
77723;BME280;66890;42.656;23.394;2023-01-15T00:08:56;95482.13;;;3.78;69.56
77723;BME280;66890;42.656;23.394;2023-01-15T00:10:57;95478.97;;;3.84;69.53
77723;BME280;66890;42.656;23.394;2023-01-15T00:13:03;95478.28;;;3.82;69.38
77723;BME280;66890;42.656;23.394;2023-01-15T00:15:04;95484.50;;;3.81;70.13
77723;BME280;66890;42.656;23.394;2023-01-15T00:17:05;95487.25;;;3.79;69.57
77723;BME280;66890;42.656;23.394;2023-01-15T00:19:08;95483.66;;;3.80;69.69
77723;BME280;66890;42.656;23.394;2023-01-15T00:21:11;95479.25;;;3.81;69.29
77723;BME280;66890;42.656;23.394;2023-01-15T00:23:11;95478.28;;;3.82;69.32
77723;BME280;66890;42.656;23.394;2023-01-15T00:25:12;95483.97;;;3.87;69.08
77723;BME280;66890;42.656;23.394;2023-01-15T00:27:13;95478.56;;;3.88;69.41
77723;BME280;66890;42.656;23.394;2023-01-15T00:29:15;95481.47;;;3.85;69.25
77723;BME280;66890;42.656;23.394;2023-01-15T00:31:16;95480.78;;;3.83;69.46
77723;BME280;66890;42.656;23.394;2023-01-15T00:33:16;95481.88;;;3.81;69.35
77723;BME280;66890;42.656;23.394;2023-01-15T00:35:18;95485.03;;;3.84;69.45
77723;BME280;66890;42.656;23.394;2023-01-15T00:37:20;95482.31;;;3.86;68.85
77723;BME280;66890;42.656;23.394;2023-01-15T00:39:20;95474.69;;;3.83;68.84
77723;BME280;66890;42.656;23.394;2023-01-15T00:41:21;95477.06;;;3.86;68.94
77723;BME280;66890;42.656;23.394;2023-01-15T00:43:22;95474.00;;;3.81;68.93
77723;BME280;66890;42.656;23.394;2023-01-15T00:45:24;95474.66;;;3.73;69.35
77723;BME280;66890;42.656;23.394;2023-01-15T00:47:24;95476.47;;;3.73;69.24
77723;BME280;66890;42.656;23.394;2023-01-15T00:49:25;95470.28;;;3.74;69.40
77723;BME280;66890;42.656;23.394;2023-01-15T00:51:25;95469.75;;;3.80;68.92
77723;BME280;66890;42.656;23.394;2023-01-15T00:53:26;95470.56;;;3.80;69.27
77723;BME280;66890;42.656;23.394;2023-01-15T00:55:26;95466.97;;;3.81;69.00
77723;BME280;66890;42.656;23.394;2023-01-15T00:57:27;95463.69;;;3.79;69.42
77723;BME280;66890;42.656;23.394;2023-01-15T00:59:28;95465.19;;;3.82;68.32
77723;BME280;66890;42.656;23.394;2023-01-15T01:01:30;95467.66;;;3.83;68.61
77723;BME280;66890;42.656;23.394;2023-01-15T01:03:31;95471.41;;;3.81;68.39
77723;BME280;66890;42.656;23.394;2023-01-15T01:05:31;95468.91;;;3.79;68.86
77723;BME280;66890;42.656;23.394;2023-01-15T01:07:32;95477.47;;;3.81;68.42
77723;BME280;66890;42.656;23.394;2023-01-15T01:09:32;95474.44;;;3.86;68.37
77723;BME280;66890;42.656;23.394;2023-01-15T01:11:33;95476.25;;;3.85;68.23
77723;BME280;66890;42.656;23.394;2023-01-15T01:13:35;95468.06;;;3.79;68.06
77723;BME280;66890;42.656;23.394;2023-01-15T01:15:36;95469.41;;;3.73;68.42
77723;BME280;66890;42.656;23.394;2023-01-15T01:17:38;95465.88;;;3.74;68.28
77723;BME280;66890;42.656;23.394;2023-01-15T01:19:39;95472.22;;;3.81;68.50
77723;BME280;66890;42.656;23.394;2023-01-15T01:21:41;95484.09;;;3.85;68.29
77723;BME280;66890;42.656;23.394;2023-01-15T01:23:42;95475.41;;;3.85;68.23
77723;BME280;66890;42.656;23.394;2023-01-15T01:25:42;95464.34;;;3.81;68.24
77723;BME280;66890;42.656;23.394;2023-01-15T01:27:43;95466.16;;;3.81;68.13
77723;BME280;66890;42.656;23.394;2023-01-15T01:29:44;95459.78;;;3.83;68.10
77723;BME280;66890;42.656;23.394;2023-01-15T01:31:45;95467.22;;;3.78;68.31
77723;BME280;66890;42.656;23.394;2023-01-15T01:33:48;95460.19;;;3.79;68.00
77723;BME280;66890;42.656;23.394;2023-01-15T01:35:49;95452.06;;;3.82;67.92
77723;BME280;66890;42.656;23.394;2023-01-15T01:37:50;95452.06;;;3.82;67.87
77723;BME280;66890;42.656;23.394;2023-01-15T01:39:51;95454.94;;;3.79;67.42
77723;BME280;66890;42.656;23.394;2023-01-15T01:41:51;95459.38;;;3.78;67.58
77723;BME280;66890;42.656;23.394;2023-01-15T01:43:55;95453.44;;;3.76;67.12
77723;BME280;66890;42.656;23.394;2023-01-15T01:45:56;95455.91;;;3.78;67.18
77723;BME280;66890;42.656;23.394;2023-01-15T01:47:59;95456.22;;;3.75;67.60
77723;BME280;66890;42.656;23.394;2023-01-15T01:50:07;95454.81;;;3.70;67.71
77723;BME280;66890;42.656;23.394;2023-01-15T01:52:11;95450.00;;;3.76;67.00
77723;BME280;66890;42.656;23.394;2023-01-15T01:54:15;95452.47;;;3.77;67.27
77723;BME280;66890;42.656;23.394;2023-01-15T01:56:17;95449.72;;;3.79;67.24
77723;BME280;66890;42.656;23.394;2023-01-15T01:58:19;95450.56;;;3.79;67.13
77723;BME280;66890;42.656;23.394;2023-01-15T02:00:22;95454.94;;;3.79;67.17
77723;BME280;66890;42.656;23.394;2023-01-15T02:02:23;95451.25;;;3.81;66.85
77723;BME280;66890;42.656;23.394;2023-01-15T02:04:26;95446.97;;;3.80;67.46
77723;BME280;66890;42.656;23.394;2023-01-15T02:06:30;95459.50;;;3.77;67.28
77723;BME280;66890;42.656;23.394;2023-01-15T02:08:31;95457.84;;;3.76;67.30
77723;BME280;66890;42.656;23.394;2023-01-15T02:10:32;95457.84;;;3.76;67.54
77723;BME280;66890;42.656;23.394;2023-01-15T02:12:35;95462.81;;;3.79;67.60
77723;BME280;66890;42.656;23.394;2023-01-15T02:14:41;95461.31;;;3.76;67.61
77723;BME280;66890;42.656;23.394;2023-01-15T02:16:47;95451.50;;;3.78;67.67
77723;BME280;66890;42.656;23.394;2023-01-15T02:18:56;95454.84;;;3.80;67.13
77723;BME280;66890;42.656;23.394;2023-01-15T02:21:00;95452.31;;;3.79;67.27
77723;BME280;66890;42.656;23.394;2023-01-15T02:23:32;95448.34;;;3.75;67.81
77723;BME280;66890;42.656;23.394;2023-01-15T02:25:50;95456.88;;;3.77;67.67
77723;BME280;66890;42.656;23.394;2023-01-15T02:28:00;95452.19;;;3.70;68.16
77723;BME280;66890;42.656;23.394;2023-01-15T02:30:07;95454.22;;;3.67;67.98
77723;BME280;66890;42.656;23.394;2023-01-15T02:32:13;95456.59;;;3.70;68.36
77723;BME280;66890;42.656;23.394;2023-01-15T02:34:21;95452.63;;;3.76;67.70
77723;BME280;66890;42.656;23.394;2023-01-15T02:36:25;95455.09;;;3.77;67.54
77723;BME280;66890;42.656;23.394;2023-01-15T02:38:32;95465.16;;;3.72;67.96
77723;BME280;66890;42.656;23.394;2023-01-15T02:40:34;95453.97;;;3.70;68.18
77723;BME280;66890;42.656;23.394;2023-01-15T02:42:35;95456.59;;;3.70;68.09
77723;BME280;66890;42.656;23.394;2023-01-15T02:44:43;95447.78;;;3.71;67.92
77723;BME280;66890;42.656;23.394;2023-01-15T02:46:46;95446.94;;;3.70;67.77
77723;BME280;66890;42.656;23.394;2023-01-15T02:48:51;95452.31;;;3.69;67.88
77723;BME280;66890;42.656;23.394;2023-01-15T02:50:54;95438.22;;;3.60;68.70
77723;BME280;66890;42.656;23.394;2023-01-15T02:53:01;95443.16;;;3.54;68.58
77723;BME280;66890;42.656;23.394;2023-01-15T02:55:06;95445.78;;;3.54;68.83
77723;BME280;66890;42.656;23.394;2023-01-15T02:57:09;95446.03;;;3.51;68.82
77723;BME280;66890;42.656;23.394;2023-01-15T02:59:13;95444.66;;;3.47;68.87
77723;BME280;66890;42.656;23.394;2023-01-15T03:01:19;95444.25;;;3.51;69.33
77723;BME280;66890;42.656;23.394;2023-01-15T03:03:27;95443.72;;;3.48;69.32
77723;BME280;66890;42.656;23.394;2023-01-15T03:05:32;95445.34;;;3.49;68.89
77723;BME280;66890;42.656;23.394;2023-01-15T03:07:36;95441.78;;;3.50;69.00
77723;BME280;66890;42.656;23.394;2023-01-15T03:09:41;95447.44;;;3.55;69.48
77723;BME280;66890;42.656;23.394;2023-01-15T03:11:44;95447.06;;;3.59;68.90
77723;BME280;66890;42.656;23.394;2023-01-15T03:13:47;95453.38;;;3.57;69.61
77723;BME280;66890;42.656;23.394;2023-01-15T03:15:54;95448.84;;;3.59;69.52
77723;BME280;66890;42.656;23.394;2023-01-15T03:18:00;95449.91;;;3.56;69.29
77723;BME280;66890;42.656;23.394;2023-01-15T03:20:06;95449.91;;;3.56;69.27
77723;BME280;66890;42.656;23.394;2023-01-15T03:22:11;95447.06;;;3.59;68.93
77723;BME280;66890;42.656;23.394;2023-01-15T03:24:20;95448.56;;;3.62;68.63
77723;BME280;66890;42.656;23.394;2023-01-15T03:26:21;95455.59;;;3.61;69.27
77723;BME280;66890;42.656;23.394;2023-01-15T03:28:25;95450.94;;;3.65;69.16
77723;BME280;66890;42.656;23.394;2023-01-15T03:30:26;95453.69;;;3.63;68.80
77723;BME280;66890;42.656;23.394;2023-01-15T03:32:27;95452.97;;;3.61;69.09
77723;BME280;66890;42.656;23.394;2023-01-15T03:34:33;95450.34;;;3.61;69.20
77723;BME280;66890;42.656;23.394;2023-01-15T03:36:35;95442.88;;;3.57;69.19
77723;BME280;66890;42.656;23.394;2023-01-15T03:38:37;95449.00;;;3.57;69.01
77723;BME280;66890;42.656;23.394;2023-01-15T03:40:47;95455.88;;;3.58;68.60
77723;BME280;66890;42.656;23.394;2023-01-15T03:42:52;95453.38;;;3.57;68.61
77723;BME280;66890;42.656;23.394;2023-01-15T03:44:59;95454.63;;;3.62;68.26
77723;BME280;66890;42.656;23.394;2023-01-15T03:47:08;95457.25;;;3.62;68.56
77723;BME280;66890;42.656;23.394;2023-01-15T03:49:17;95459.03;;;3.62;68.32
77723;BME280;66890;42.656;23.394;2023-01-15T03:51:24;95456.97;;;3.56;69.03
77723;BME280;66890;42.656;23.394;2023-01-15T03:53:32;95457.09;;;3.54;68.49
77723;BME280;66890;42.656;23.394;2023-01-15T03:55:42;95463.84;;;3.57;68.26
77723;BME280;66890;42.656;23.394;2023-01-15T03:57:48;95453.81;;;3.62;68.09
77723;BME280;66890;42.656;23.394;2023-01-15T03:59:53;95450.34;;;3.61;68.20
77723;BME280;66890;42.656;23.394;2023-01-15T04:01:53;95456.13;;;3.55;68.09
77723;BME280;66890;42.656;23.394;2023-01-15T04:03:56;95454.47;;;3.54;68.81
77723;BME280;66890;42.656;23.394;2023-01-15T04:05:59;95449.50;;;3.51;68.73
77723;BME280;66890;42.656;23.394;2023-01-15T04:08:03;95443.72;;;3.48;68.67
77723;BME280;66890;42.656;23.394;2023-01-15T04:10:06;95449.91;;;3.47;69.00
77723;BME280;66890;42.656;23.394;2023-01-15T04:12:07;95451.00;;;3.44;69.01
77723;BME280;66890;42.656;23.394;2023-01-15T04:14:11;95443.72;;;3.48;69.00
77723;BME280;66890;42.656;23.394;2023-01-15T04:16:13;95443.81;;;3.46;68.98
77723;BME280;66890;42.656;23.394;2023-01-15T04:18:13;95443.56;;;3.49;69.26
77723;BME280;66890;42.656;23.394;2023-01-15T04:20:14;95437.09;;;3.53;68.91
77723;BME280;66890;42.656;23.394;2023-01-15T04:22:15;95447.31;;;3.56;68.98
77723;BME280;66890;42.656;23.394;2023-01-15T04:24:17;95444.69;;;3.56;68.62
77723;BME280;66890;42.656;23.394;2023-01-15T04:26:17;95453.66;;;3.54;68.68
77723;BME280;66890;42.656;23.394;2023-01-15T04:28:18;95447.16;;;3.48;69.06
77723;BME280;66890;42.656;23.394;2023-01-15T04:30:19;95450.84;;;3.46;69.33
77723;BME280;66890;42.656;23.394;2023-01-15T04:32:19;95450.84;;;3.46;69.65
77723;BME280;66890;42.656;23.394;2023-01-15T04:34:20;95456.09;;;3.46;69.47
77723;BME280;66890;42.656;23.394;2023-01-15T04:36:20;95454.13;;;3.38;70.18
77723;BME280;66890;42.656;23.394;2023-01-15T04:38:21;95458.69;;;3.36;70.13
77723;BME280;66890;42.656;23.394;2023-01-15T04:40:23;95460.97;;;3.29;70.03
77723;BME280;66890;42.656;23.394;2023-01-15T04:42:24;95465.38;;;3.29;69.92
77723;BME280;66890;42.656;23.394;2023-01-15T04:44:25;95461.25;;;3.26;70.28
77723;BME280;66890;42.656;23.394;2023-01-15T04:46:25;95463.94;;;3.36;70.55
77723;BME280;66890;42.656;23.394;2023-01-15T04:48:26;95462.81;;;3.38;70.08
77723;BME280;66890;42.656;23.394;2023-01-15T04:50:26;95467.06;;;3.30;70.42
77723;BME280;66890;42.656;23.394;2023-01-15T04:52:27;95462.78;;;3.29;70.16
77723;BME280;66890;42.656;23.394;2023-01-15T04:54:28;95468.44;;;3.34;70.36
77723;BME280;66890;42.656;23.394;2023-01-15T04:56:30;95468.44;;;3.34;70.32
77723;BME280;66890;42.656;23.394;2023-01-15T04:58:31;95467.31;;;3.27;70.65
77723;BME280;66890;42.656;23.394;2023-01-15T05:00:32;95462.09;;;3.27;71.28
77723;BME280;66890;42.656;23.394;2023-01-15T05:02:33;95468.28;;;3.26;71.54
77723;BME280;66890;42.656;23.394;2023-01-15T05:04:34;95466.22;;;3.29;71.71
77723;BME280;66890;42.656;23.394;2023-01-15T05:06:35;95466.75;;;3.23;72.07
77723;BME280;66890;42.656;23.394;2023-01-15T05:08:35;95464.28;;;3.22;71.93
77723;BME280;66890;42.656;23.394;2023-01-15T05:10:36;95467.28;;;3.17;72.24
77723;BME280;66890;42.656;23.394;2023-01-15T05:12:38;95469.19;;;3.15;72.95
77723;BME280;66890;42.656;23.394;2023-01-15T05:14:38;95466.28;;;3.08;72.87
77723;BME280;66890;42.656;23.394;2023-01-15T05:16:39;95468.19;;;3.06;71.85
77723;BME280;66890;42.656;23.394;2023-01-15T05:18:40;95461.72;;;3.10;72.41
77723;BME280;66890;42.656;23.394;2023-01-15T05:20:41;95463.22;;;3.03;72.67
77723;BME280;66890;42.656;23.394;2023-01-15T05:22:41;95465.38;;;2.98;73.19
77723;BME280;66890;42.656;23.394;2023-01-15T05:24:42;95460.84;;;3.00;73.03
77723;BME280;66890;42.656;23.394;2023-01-15T05:26:43;95467.03;;;2.99;73.64
77723;BME280;66890;42.656;23.394;2023-01-15T05:28:45;95467.44;;;2.95;73.36
77723;BME280;66890;42.656;23.394;2023-01-15T05:30:46;95458.16;;;2.90;73.50
77723;BME280;66890;42.656;23.394;2023-01-15T05:32:47;95457.22;;;2.92;73.55
77723;BME280;66890;42.656;23.394;2023-01-15T05:34:47;95463.28;;;2.92;73.80
77723;BME280;66890;42.656;23.394;2023-01-15T05:36:48;95456.66;;;2.88;73.57
77723;BME280;66890;42.656;23.394;2023-01-15T05:38:49;95459.94;;;2.90;73.96
77723;BME280;66890;42.656;23.394;2023-01-15T05:40:49;95454.63;;;2.92;73.67
77723;BME280;66890;42.656;23.394;2023-01-15T05:42:50;95458.88;;;2.93;74.91
77723;BME280;66890;42.656;23.394;2023-01-15T05:44:52;95449.25;;;2.93;74.12
77723;BME280;66890;42.656;23.394;2023-01-15T05:46:55;95459.19;;;2.99;74.00
77723;BME280;66890;42.656;23.394;2023-01-15T05:48:59;95458.66;;;3.05;73.42
77723;BME280;66890;42.656;23.394;2023-01-15T05:51:00;95462.63;;;3.00;73.65
77723;BME280;66890;42.656;23.394;2023-01-15T05:53:01;95465.84;;;3.03;73.50
77723;BME280;66890;42.656;23.394;2023-01-15T05:55:02;95466.53;;;3.05;73.67
77723;BME280;66890;42.656;23.394;2023-01-15T05:57:03;95469.19;;;3.15;72.66
77723;BME280;66890;42.656;23.394;2023-01-15T05:59:04;95477.22;;;3.23;72.50
77723;BME280;66890;42.656;23.394;2023-01-15T06:01:07;95475.44;;;3.24;72.46
77723;BME280;66890;42.656;23.394;2023-01-15T06:03:08;95472.38;;;3.18;72.42
77723;BME280;66890;42.656;23.394;2023-01-15T06:05:09;95474.88;;;3.20;72.62
77723;BME280;66890;42.656;23.394;2023-01-15T06:07:09;95483.81;;;3.17;72.65
77723;BME280;66890;42.656;23.394;2023-01-15T06:09:10;95473.47;;;3.16;72.67
77723;BME280;66890;42.656;23.394;2023-01-15T06:11:11;95468.94;;;3.18;72.88
77723;BME280;66890;42.656;23.394;2023-01-15T06:13:12;95480.56;;;3.25;72.51
77723;BME280;66890;42.656;23.394;2023-01-15T06:15:13;95468.28;;;3.26;72.63
77723;BME280;66890;42.656;23.394;2023-01-15T06:17:15;95473.25;;;3.29;72.15
77723;BME280;66890;42.656;23.394;2023-01-15T06:19:16;95477.41;;;3.31;72.34
77723;BME280;66890;42.656;23.394;2023-01-15T06:21:17;95469.41;;;3.33;71.64
77723;BME280;66890;42.656;23.394;2023-01-15T06:23:18;95469.47;;;3.42;71.34
77723;BME280;66890;42.656;23.394;2023-01-15T06:25:18;95469.59;;;3.41;71.13
77723;BME280;66890;42.656;23.394;2023-01-15T06:27:19;95468.75;;;3.40;71.00
77723;BME280;66890;42.656;23.394;2023-01-15T06:29:19;95466.03;;;3.42;71.44
77723;BME280;66890;42.656;23.394;2023-01-15T06:31:21;95466.91;;;3.52;70.80
77723;BME280;66890;42.656;23.394;2023-01-15T06:33:23;95464.00;;;3.55;70.37
77723;BME280;66890;42.656;23.394;2023-01-15T06:35:24;95466.63;;;3.55;69.57
77723;BME280;66890;42.656;23.394;2023-01-15T06:37:25;95458.06;;;3.53;68.99
77723;BME280;66890;42.656;23.394;2023-01-15T06:39:26;95463.31;;;3.53;68.65
77723;BME280;66890;42.656;23.394;2023-01-15T06:41:26;95468.53;;;3.53;67.92
77723;BME280;66890;42.656;23.394;2023-01-15T06:43:27;95463.75;;;3.58;68.21
77723;BME280;66890;42.656;23.394;2023-01-15T06:45:32;95467.72;;;3.62;68.82
77723;BME280;66890;42.656;23.394;2023-01-15T06:47:35;95468.16;;;3.67;68.94
77723;BME280;66890;42.656;23.394;2023-01-15T06:49:37;95472.56;;;3.67;68.62
77723;BME280;66890;42.656;23.394;2023-01-15T06:51:38;95466.25;;;3.69;68.54
77723;BME280;66890;42.656;23.394;2023-01-15T06:53:38;95473.00;;;3.72;67.15
77723;BME280;66890;42.656;23.394;2023-01-15T06:55:39;95460.31;;;3.67;69.08
77723;BME280;66890;42.656;23.394;2023-01-15T06:57:40;95463.75;;;3.58;70.03
77723;BME280;66890;42.656;23.394;2023-01-15T06:59:40;95471.03;;;3.55;70.80
77723;BME280;66890;42.656;23.394;2023-01-15T07:01:41;95475.03;;;3.59;71.50
77723;BME280;66890;42.656;23.394;2023-01-15T07:03:42;95472.16;;;3.62;72.06
77723;BME280;66890;42.656;23.394;2023-01-15T07:05:44;95466.91;;;3.62;71.81
77723;BME280;66890;42.656;23.394;2023-01-15T07:07:44;95466.06;;;3.61;72.11
77723;BME280;66890;42.656;23.394;2023-01-15T07:09:45;95470.25;;;3.64;72.66
77723;BME280;66890;42.656;23.394;2023-01-15T07:11:45;95466.75;;;3.54;74.11
77723;BME280;66890;42.656;23.394;2023-01-15T07:13:46;95468.84;;;3.60;74.07
77723;BME280;66890;42.656;23.394;2023-01-15T07:15:46;95468.59;;;3.63;73.90
77723;BME280;66890;42.656;23.394;2023-01-15T07:17:47;95466.41;;;3.78;73.64
77723;BME280;66890;42.656;23.394;2023-01-15T07:19:47;95467.13;;;3.89;73.14
77723;BME280;66890;42.656;23.394;2023-01-15T07:21:49;95466.31;;;3.99;72.44
77723;BME280;66890;42.656;23.394;2023-01-15T07:23:50;95468.97;;;4.08;72.15
77723;BME280;66890;42.656;23.394;2023-01-15T07:25:51;95462.50;;;4.12;71.48
77723;BME280;66890;42.656;23.394;2023-01-15T07:27:52;95475.34;;;4.35;70.63
77723;BME280;66890;42.656;23.394;2023-01-15T07:29:52;95469.84;;;4.47;70.13
77723;BME280;66890;42.656;23.394;2023-01-15T07:31:53;95463.47;;;4.69;69.70
77723;BME280;66890;42.656;23.394;2023-01-15T07:33:54;95466.63;;;4.83;69.06
77723;BME280;66890;42.656;23.394;2023-01-15T07:35:55;95471.19;;;4.90;68.24
77723;BME280;66890;42.656;23.394;2023-01-15T07:37:57;95481.13;;;4.96;67.55
77723;BME280;66890;42.656;23.394;2023-01-15T07:39:57;95484.69;;;5.05;65.81
77723;BME280;66890;42.656;23.394;2023-01-15T07:41:58;95482.72;;;5.26;65.17
77723;BME280;66890;42.656;23.394;2023-01-15T07:43:59;95478.22;;;5.56;64.94
77723;BME280;66890;42.656;23.394;2023-01-15T07:46:00;95482.19;;;5.88;64.34
77723;BME280;66890;42.656;23.394;2023-01-15T07:48:00;95476.88;;;6.07;63.73
77723;BME280;66890;42.656;23.394;2023-01-15T07:50:01;95470.81;;;6.24;63.22
77723;BME280;66890;42.656;23.394;2023-01-15T07:52:01;95472.03;;;6.48;62.05
77723;BME280;66890;42.656;23.394;2023-01-15T07:54:03;95468.41;;;6.84;60.67
77723;BME280;66890;42.656;23.394;2023-01-15T07:56:04;95466.84;;;7.18;59.89
77723;BME280;66890;42.656;23.394;2023-01-15T07:58:05;95469.16;;;7.47;56.99
77723;BME280;66890;42.656;23.394;2023-01-15T08:00:09;95470.88;;;7.90;56.72
77723;BME280;66890;42.656;23.394;2023-01-15T08:02:10;95466.56;;;8.31;54.38
77723;BME280;66890;42.656;23.394;2023-01-15T08:04:10;95473.50;;;8.32;53.23
77723;BME280;66890;42.656;23.394;2023-01-15T08:06:11;95466.03;;;8.19;51.99
77723;BME280;66890;42.656;23.394;2023-01-15T08:08:13;95471.06;;;7.97;53.32
77723;BME280;66890;42.656;23.394;2023-01-15T08:10:16;95464.16;;;8.04;56.03
77723;BME280;66890;42.656;23.394;2023-01-15T08:12:16;95474.78;;;7.78;54.69
77723;BME280;66890;42.656;23.394;2023-01-15T08:14:17;95470.97;;;7.72;55.13
77723;BME280;66890;42.656;23.394;2023-01-15T08:16:18;95479.84;;;7.71;54.89
77723;BME280;66890;42.656;23.394;2023-01-15T08:18:18;95473.56;;;7.64;54.59
77723;BME280;66890;42.656;23.394;2023-01-15T08:20:20;95483.13;;;7.39;54.67
77723;BME280;66890;42.656;23.394;2023-01-15T08:22:21;95486.56;;;7.31;55.46
77723;BME280;66890;42.656;23.394;2023-01-15T08:24:22;95487.19;;;7.25;55.75
77723;BME280;66890;42.656;23.394;2023-01-15T08:26:24;95484.41;;;7.35;55.88
77723;BME280;66890;42.656;23.394;2023-01-15T08:28:24;95484.06;;;7.30;55.54
77723;BME280;66890;42.656;23.394;2023-01-15T08:30:25;95485.16;;;7.01;56.13
77723;BME280;66890;42.656;23.394;2023-01-15T08:32:25;95491.06;;;6.77;55.87
77723;BME280;66890;42.656;23.394;2023-01-15T08:34:26;95490.09;;;6.78;56.32
77723;BME280;66890;42.656;23.394;2023-01-15T08:36:26;95490.00;;;6.70;57.07
77723;BME280;66890;42.656;23.394;2023-01-15T08:38:27;95492.28;;;6.65;56.91
77723;BME280;66890;42.656;23.394;2023-01-15T08:40:28;95486.50;;;6.44;56.82
77723;BME280;66890;42.656;23.394;2023-01-15T08:42:30;95489.28;;;6.15;56.84
77723;BME280;66890;42.656;23.394;2023-01-15T08:44:30;95483.97;;;6.24;57.01
77723;BME280;66890;42.656;23.394;2023-01-15T08:46:31;95481.50;;;6.41;57.16
77723;BME280;66890;42.656;23.394;2023-01-15T08:48:32;95480.69;;;6.40;56.88
77723;BME280;66890;42.656;23.394;2023-01-15T08:50:33;95479.19;;;6.38;57.19
77723;BME280;66890;42.656;23.394;2023-01-15T08:52:33;95477.22;;;6.40;57.51
77723;BME280;66890;42.656;23.394;2023-01-15T08:54:34;95479.19;;;6.38;57.70
77723;BME280;66890;42.656;23.394;2023-01-15T08:56:34;95478.75;;;6.15;58.59
77723;BME280;66890;42.656;23.394;2023-01-15T08:58:36;95476.34;;;6.03;58.84
77723;BME280;66890;42.656;23.394;2023-01-15T09:00:37;95480.78;;;6.03;59.48
77723;BME280;66890;42.656;23.394;2023-01-15T09:02:37;95485.53;;;5.99;60.43
77723;BME280;66890;42.656;23.394;2023-01-15T09:04:38;95475.03;;;6.17;60.27
77723;BME280;66890;42.656;23.394;2023-01-15T09:06:38;95481.44;;;6.32;59.94
77723;BME280;66890;42.656;23.394;2023-01-15T09:08:39;95479.09;;;6.29;59.34
77723;BME280;66890;42.656;23.394;2023-01-15T09:10:40;95475.19;;;6.16;59.03
77723;BME280;66890;42.656;23.394;2023-01-15T09:12:40;95473.75;;;6.21;59.58
77723;BME280;66890;42.656;23.394;2023-01-15T09:14:42;95474.22;;;6.34;58.86
77723;BME280;66890;42.656;23.394;2023-01-15T09:16:43;95473.28;;;6.08;58.88
77723;BME280;66890;42.656;23.394;2023-01-15T09:18:43;95472.16;;;6.11;59.43
77723;BME280;66890;42.656;23.394;2023-01-15T09:20:44;95465.88;;;6.21;59.41
77723;BME280;66890;42.656;23.394;2023-01-15T09:22:45;95467.81;;;6.19;59.57
77723;BME280;66890;42.656;23.394;2023-01-15T09:24:45;95466.47;;;6.33;59.61
77723;BME280;66890;42.656;23.394;2023-01-15T09:26:46;95460.50;;;6.31;59.58
77723;BME280;66890;42.656;23.394;2023-01-15T09:28:46;95463.16;;;6.31;59.52
77723;BME280;66890;42.656;23.394;2023-01-15T09:30:49;95461.13;;;6.43;58.58
77723;BME280;66890;42.656;23.394;2023-01-15T09:32:49;95459.25;;;6.17;58.49
77723;BME280;66890;42.656;23.394;2023-01-15T09:34:50;95457.25;;;6.01;57.78
77723;BME280;66890;42.656;23.394;2023-01-15T09:36:50;95455.28;;;6.03;57.78
77723;BME280;66890;42.656;23.394;2023-01-15T09:38:51;95451.56;;;6.06;58.59
77723;BME280;66890;42.656;23.394;2023-01-15T09:40:53;95445.25;;;6.17;58.69
77723;BME280;66890;42.656;23.394;2023-01-15T09:42:57;95446.91;;;6.18;58.92
77723;BME280;66890;42.656;23.394;2023-01-15T09:45:12;95443.44;;;6.17;58.90
77723;BME280;66890;42.656;23.394;2023-01-15T09:47:19;95436.75;;;6.23;58.49
77723;BME280;66890;42.656;23.394;2023-01-15T09:49:32;95434.56;;;6.18;58.73
77723;BME280;66890;42.656;23.394;2023-01-15T09:51:40;95435.03;;;6.14;58.74
77723;BME280;66890;42.656;23.394;2023-01-15T09:53:57;95427.44;;;6.11;58.72
77723;BME280;66890;42.656;23.394;2023-01-15T09:56:02;95428.97;;;6.03;59.17
77723;BME280;66890;42.656;23.394;2023-01-15T09:58:05;95413.91;;;6.23;57.91
77723;BME280;66890;42.656;23.394;2023-01-15T10:00:16;95412.91;;;6.42;57.27
77723;BME280;66890;42.656;23.394;2023-01-15T10:02:22;95406.59;;;6.35;57.85
77723;BME280;66890;42.656;23.394;2023-01-15T10:04:33;95401.31;;;6.53;56.93
77723;BME280;66890;42.656;23.394;2023-01-15T10:06:37;95404.19;;;6.42;56.60
77723;BME280;66890;42.656;23.394;2023-01-15T10:08:43;95391.84;;;6.42;56.46
77723;BME280;66890;42.656;23.394;2023-01-15T10:10:46;95388.47;;;6.50;56.47
77723;BME280;66890;42.656;23.394;2023-01-15T10:12:47;95390.59;;;6.28;56.52
77723;BME280;66890;42.656;23.394;2023-01-15T10:14:53;95386.69;;;6.32;56.79
77723;BME280;66890;42.656;23.394;2023-01-15T10:16:54;95384.56;;;6.54;56.01
77723;BME280;66890;42.656;23.394;2023-01-15T10:18:56;95379.19;;;6.64;54.74
77723;BME280;66890;42.656;23.394;2023-01-15T10:21:15;95377.50;;;6.54;54.86
77723;BME280;66890;42.656;23.394;2023-01-15T10:23:32;95371.66;;;6.69;54.83
77723;BME280;66890;42.656;23.394;2023-01-15T10:25:39;95367.94;;;6.79;54.49
77723;BME280;66890;42.656;23.394;2023-01-15T10:27:45;95365.38;;;6.88;54.57
77723;BME280;66890;42.656;23.394;2023-01-15T10:29:50;95362.78;;;6.96;55.73
77723;BME280;66890;42.656;23.394;2023-01-15T10:31:53;95358.13;;;6.81;56.25
77723;BME280;66890;42.656;23.394;2023-01-15T10:34:05;95353.66;;;6.82;57.31
77723;BME280;66890;42.656;23.394;2023-01-15T10:36:14;95348.75;;;6.61;58.08
77723;BME280;66890;42.656;23.394;2023-01-15T10:38:21;95349.28;;;6.47;57.92
77723;BME280;66890;42.656;23.394;2023-01-15T10:40:53;95349.53;;;6.36;58.57
77723;BME280;66890;42.656;23.394;2023-01-15T10:43:02;95341.00;;;6.59;58.70
77723;BME280;66890;42.656;23.394;2023-01-15T10:45:11;95334.44;;;6.90;57.25
77723;BME280;66890;42.656;23.394;2023-01-15T10:47:15;95339.78;;;6.72;57.17
77723;BME280;66890;42.656;23.394;2023-01-15T10:49:18;95334.03;;;6.76;57.13